sensor_id;sensor_type;location;lat;lon;timestamp;temperature;humidity
31263;DHT22;17892;52.080;9.006;2023-02-08T00:01:51;0.40;99.90
31263;DHT22;17892;52.080;9.006;2023-02-08T00:04:16;0.30;99.90
31263;DHT22;17892;52.080;9.006;2023-02-08T00:06:42;0.30;99.90
31263;DHT22;17892;52.080;9.006;2023-02-08T00:09:08;0.30;99.90
31263;DHT22;17892;52.080;9.006;2023-02-08T00:11:34;0.30;99.90
31263;DHT22;17892;52.080;9.006;2023-02-08T00:14:00;0.30;99.90
31263;DHT22;17892;52.080;9.006;2023-02-08T00:16:25;0.30;99.90
31263;DHT22;17892;52.080;9.006;2023-02-08T00:18:51;0.30;99.90
31263;DHT22;17892;52.080;9.006;2023-02-08T00:21:18;0.30;99.90
31263;DHT22;17892;52.080;9.006;2023-02-08T00:23:45;0.30;99.90
31263;DHT22;17892;52.080;9.006;2023-02-08T00:26:11;0.30;99.90
31263;DHT22;17892;52.080;9.006;2023-02-08T00:28:37;0.30;99.90
31263;DHT22;17892;52.080;9.006;2023-02-08T00:31:03;0.40;99.90
31263;DHT22;17892;52.080;9.006;2023-02-08T00:33:29;0.40;99.90
31263;DHT22;17892;52.080;9.006;2023-02-08T00:36:02;0.40;99.90
31263;DHT22;17892;52.080;9.006;2023-02-08T00:38:31;0.40;99.90
31263;DHT22;17892;52.080;9.006;2023-02-08T00:40:56;0.50;99.90
31263;DHT22;17892;52.080;9.006;2023-02-08T00:43:22;0.50;99.90
31263;DHT22;17892;52.080;9.006;2023-02-08T00:45:56;0.50;99.90
31263;DHT22;17892;52.080;9.006;2023-02-08T00:48:23;0.50;99.90
31263;DHT22;17892;52.080;9.006;2023-02-08T00:53:25;0.50;99.90
31263;DHT22;17892;52.080;9.006;2023-02-08T00:55:55;0.50;99.90
31263;DHT22;17892;52.080;9.006;2023-02-08T00:58:21;0.50;99.90
31263;DHT22;17892;52.080;9.006;2023-02-08T01:00:50;0.50;99.90
31263;DHT22;17892;52.080;9.006;2023-02-08T01:03:17;0.50;99.90
31263;DHT22;17892;52.080;9.006;2023-02-08T01:05:43;0.50;99.90
31263;DHT22;17892;52.080;9.006;2023-02-08T01:08:09;0.50;99.90
31263;DHT22;17892;52.080;9.006;2023-02-08T01:10:35;0.50;99.90
31263;DHT22;17892;52.080;9.006;2023-02-08T01:13:01;0.40;99.90
31263;DHT22;17892;52.080;9.006;2023-02-08T01:15:27;0.40;99.90
31263;DHT22;17892;52.080;9.006;2023-02-08T01:17:54;0.30;99.90
31263;DHT22;17892;52.080;9.006;2023-02-08T01:20:21;0.20;99.90
31263;DHT22;17892;52.080;9.006;2023-02-08T01:22:47;0.20;99.90
31263;DHT22;17892;52.080;9.006;2023-02-08T01:25:12;0.10;99.90
31263;DHT22;17892;52.080;9.006;2023-02-08T01:27:38;0.00;99.90
31263;DHT22;17892;52.080;9.006;2023-02-08T01:30:04;0.00;99.90
31263;DHT22;17892;52.080;9.006;2023-02-08T01:32:30;-0.10;99.90
31263;DHT22;17892;52.080;9.006;2023-02-08T01:34:56;-0.10;99.90
31263;DHT22;17892;52.080;9.006;2023-02-08T01:37:22;-0.20;99.90
31263;DHT22;17892;52.080;9.006;2023-02-08T01:39:47;-0.20;99.90
31263;DHT22;17892;52.080;9.006;2023-02-08T01:42:14;-0.20;99.90
31263;DHT22;17892;52.080;9.006;2023-02-08T01:47:43;-0.20;99.90
31263;DHT22;17892;52.080;9.006;2023-02-08T01:50:10;-0.20;99.90
31263;DHT22;17892;52.080;9.006;2023-02-08T01:52:36;-0.10;99.90
31263;DHT22;17892;52.080;9.006;2023-02-08T01:55:08;-0.10;99.90
31263;DHT22;17892;52.080;9.006;2023-02-08T01:57:36;0.00;99.90
31263;DHT22;17892;52.080;9.006;2023-02-08T02:00:07;0.00;99.90
31263;DHT22;17892;52.080;9.006;2023-02-08T02:02:38;0.10;99.90
31263;DHT22;17892;52.080;9.006;2023-02-08T02:05:05;0.10;99.90
31263;DHT22;17892;52.080;9.006;2023-02-08T02:07:32;0.20;99.90
31263;DHT22;17892;52.080;9.006;2023-02-08T02:10:11;0.20;99.90
31263;DHT22;17892;52.080;9.006;2023-02-08T02:12:40;0.20;99.90
31263;DHT22;17892;52.080;9.006;2023-02-08T02:15:07;0.30;99.90
31263;DHT22;17892;52.080;9.006;2023-02-08T02:17:34;0.30;99.90
31263;DHT22;17892;52.080;9.006;2023-02-08T02:22:52;0.30;99.90
31263;DHT22;17892;52.080;9.006;2023-02-08T02:31:58;0.40;99.90
31263;DHT22;17892;52.080;9.006;2023-02-08T02:34:52;0.40;99.90
31263;DHT22;17892;52.080;9.006;2023-02-08T02:37:54;0.50;99.90
31263;DHT22;17892;52.080;9.006;2023-02-08T02:47:28;0.60;99.90
31263;DHT22;17892;52.080;9.006;2023-02-08T02:50:51;0.60;99.60
31263;DHT22;17892;52.080;9.006;2023-02-08T02:56:20;0.70;99.90
31263;DHT22;17892;52.080;9.006;2023-02-08T02:58:48;0.70;99.70
31263;DHT22;17892;52.080;9.006;2023-02-08T03:01:23;0.70;99.90
31263;DHT22;17892;52.080;9.006;2023-02-08T03:03:54;0.70;99.90
31263;DHT22;17892;52.080;9.006;2023-02-08T03:06:59;0.80;99.90
31263;DHT22;17892;52.080;9.006;2023-02-08T03:09:35;0.80;99.80
31263;DHT22;17892;52.080;9.006;2023-02-08T03:20:50;0.80;99.60
31263;DHT22;17892;52.080;9.006;2023-02-08T03:26:22;0.80;99.90
31263;DHT22;17892;52.080;9.006;2023-02-08T03:29:07;0.80;99.90
31263;DHT22;17892;52.080;9.006;2023-02-08T03:34:45;0.80;99.90
31263;DHT22;17892;52.080;9.006;2023-02-08T03:37:17;0.80;99.90
31263;DHT22;17892;52.080;9.006;2023-02-08T03:39:48;0.80;99.90
31263;DHT22;17892;52.080;9.006;2023-02-08T03:42:20;0.80;99.90
31263;DHT22;17892;52.080;9.006;2023-02-08T03:45:00;0.80;98.90
31263;DHT22;17892;52.080;9.006;2023-02-08T03:47:41;0.90;97.80
31263;DHT22;17892;52.080;9.006;2023-02-08T03:50:11;0.90;99.90
31263;DHT22;17892;52.080;9.006;2023-02-08T03:52:39;0.90;99.90
31263;DHT22;17892;52.080;9.006;2023-02-08T03:55:12;0.90;99.90
31263;DHT22;17892;52.080;9.006;2023-02-08T03:57:55;0.90;99.90
31263;DHT22;17892;52.080;9.006;2023-02-08T04:00:23;0.80;99.10
31263;DHT22;17892;52.080;9.006;2023-02-08T04:05:21;0.80;99.80
31263;DHT22;17892;52.080;9.006;2023-02-08T04:07:49;0.70;99.90
31263;DHT22;17892;52.080;9.006;2023-02-08T04:10:16;0.70;99.90
31263;DHT22;17892;52.080;9.006;2023-02-08T04:12:42;0.60;99.90
31263;DHT22;17892;52.080;9.006;2023-02-08T04:15:08;0.60;99.90
31263;DHT22;17892;52.080;9.006;2023-02-08T04:17:34;0.50;99.90
31263;DHT22;17892;52.080;9.006;2023-02-08T04:20:00;0.50;99.90
31263;DHT22;17892;52.080;9.006;2023-02-08T04:22:26;0.40;99.90
31263;DHT22;17892;52.080;9.006;2023-02-08T04:24:51;0.40;99.90
31263;DHT22;17892;52.080;9.006;2023-02-08T04:27:17;0.30;99.90
31263;DHT22;17892;52.080;9.006;2023-02-08T04:29:43;0.20;99.90
31263;DHT22;17892;52.080;9.006;2023-02-08T04:32:08;0.20;99.90
31263;DHT22;17892;52.080;9.006;2023-02-08T04:34:36;0.10;99.90
31263;DHT22;17892;52.080;9.006;2023-02-08T04:37:04;0.00;99.90
31263;DHT22;17892;52.080;9.006;2023-02-08T04:39:30;-0.10;99.90
31263;DHT22;17892;52.080;9.006;2023-02-08T04:41:56;-0.20;99.90
31263;DHT22;17892;52.080;9.006;2023-02-08T04:44:22;-0.30;99.90
31263;DHT22;17892;52.080;9.006;2023-02-08T04:46:48;-0.30;99.90
31263;DHT22;17892;52.080;9.006;2023-02-08T04:49:14;-0.40;99.90
31263;DHT22;17892;52.080;9.006;2023-02-08T04:51:40;-0.50;99.90
31263;DHT22;17892;52.080;9.006;2023-02-08T04:54:06;-0.50;99.90
31263;DHT22;17892;52.080;9.006;2023-02-08T04:56:31;-0.60;99.90
31263;DHT22;17892;52.080;9.006;2023-02-08T04:58:57;-0.60;99.90
31263;DHT22;17892;52.080;9.006;2023-02-08T05:01:23;-0.60;99.90
31263;DHT22;17892;52.080;9.006;2023-02-08T05:03:49;-0.60;99.90
31263;DHT22;17892;52.080;9.006;2023-02-08T05:06:15;-0.60;99.90
31263;DHT22;17892;52.080;9.006;2023-02-08T05:08:40;-0.50;99.90
31263;DHT22;17892;52.080;9.006;2023-02-08T05:11:06;-0.50;99.90
31263;DHT22;17892;52.080;9.006;2023-02-08T05:13:32;-0.40;99.90
31263;DHT22;17892;52.080;9.006;2023-02-08T05:15:58;-0.40;99.90
31263;DHT22;17892;52.080;9.006;2023-02-08T05:18:24;-0.40;99.90
31263;DHT22;17892;52.080;9.006;2023-02-08T05:20:56;-0.40;99.90
31263;DHT22;17892;52.080;9.006;2023-02-08T05:23:24;-0.40;99.90
31263;DHT22;17892;52.080;9.006;2023-02-08T05:25:50;-0.40;99.90
31263;DHT22;17892;52.080;9.006;2023-02-08T05:28:16;-0.40;99.90
31263;DHT22;17892;52.080;9.006;2023-02-08T05:30:43;-0.50;99.90
31263;DHT22;17892;52.080;9.006;2023-02-08T05:33:08;-0.40;99.90
31263;DHT22;17892;52.080;9.006;2023-02-08T05:35:34;-0.40;99.90
31263;DHT22;17892;52.080;9.006;2023-02-08T05:38:00;-0.40;99.90
31263;DHT22;17892;52.080;9.006;2023-02-08T05:40:25;-0.30;99.90
31263;DHT22;17892;52.080;9.006;2023-02-08T05:42:51;-0.30;99.90
31263;DHT22;17892;52.080;9.006;2023-02-08T05:45:17;-0.20;99.90
31263;DHT22;17892;52.080;9.006;2023-02-08T05:47:42;-0.20;99.90
31263;DHT22;17892;52.080;9.006;2023-02-08T05:50:09;-0.20;99.90
31263;DHT22;17892;52.080;9.006;2023-02-08T05:52:34;-0.20;99.90
31263;DHT22;17892;52.080;9.006;2023-02-08T05:55:00;-0.10;99.90
31263;DHT22;17892;52.080;9.006;2023-02-08T05:57:26;-0.10;99.90
31263;DHT22;17892;52.080;9.006;2023-02-08T05:59:51;-0.10;99.90
31263;DHT22;17892;52.080;9.006;2023-02-08T06:02:17;-0.10;99.90
31263;DHT22;17892;52.080;9.006;2023-02-08T06:04:43;-0.10;99.90
31263;DHT22;17892;52.080;9.006;2023-02-08T06:07:08;-0.10;99.90
31263;DHT22;17892;52.080;9.006;2023-02-08T06:09:34;-0.10;99.90
31263;DHT22;17892;52.080;9.006;2023-02-08T06:12:00;-0.10;99.90
31263;DHT22;17892;52.080;9.006;2023-02-08T06:14:25;-0.10;99.90
31263;DHT22;17892;52.080;9.006;2023-02-08T06:16:51;-0.10;99.90
31263;DHT22;17892;52.080;9.006;2023-02-08T06:19:17;-0.10;99.90
31263;DHT22;17892;52.080;9.006;2023-02-08T06:21:42;0.00;99.90
31263;DHT22;17892;52.080;9.006;2023-02-08T06:24:08;0.00;99.90
31263;DHT22;17892;52.080;9.006;2023-02-08T06:26:35;0.00;99.90
31263;DHT22;17892;52.080;9.006;2023-02-08T06:29:02;0.00;99.90
31263;DHT22;17892;52.080;9.006;2023-02-08T06:31:27;0.00;99.90
31263;DHT22;17892;52.080;9.006;2023-02-08T06:33:53;0.00;99.90
31263;DHT22;17892;52.080;9.006;2023-02-08T06:36:19;0.00;99.90
31263;DHT22;17892;52.080;9.006;2023-02-08T06:38:44;0.00;99.90
31263;DHT22;17892;52.080;9.006;2023-02-08T06:41:10;0.00;99.90
31263;DHT22;17892;52.080;9.006;2023-02-08T06:43:36;0.00;99.90
31263;DHT22;17892;52.080;9.006;2023-02-08T06:46:01;0.00;99.90
31263;DHT22;17892;52.080;9.006;2023-02-08T06:48:36;0.00;99.90
31263;DHT22;17892;52.080;9.006;2023-02-08T06:51:02;0.00;99.90
31263;DHT22;17892;52.080;9.006;2023-02-08T06:53:28;0.00;99.90
31263;DHT22;17892;52.080;9.006;2023-02-08T06:55:54;-0.10;99.90
31263;DHT22;17892;52.080;9.006;2023-02-08T06:58:20;-0.10;99.10
31263;DHT22;17892;52.080;9.006;2023-02-08T07:00:46;-0.10;99.90
31263;DHT22;17892;52.080;9.006;2023-02-08T07:03:13;-0.10;99.90
31263;DHT22;17892;52.080;9.006;2023-02-08T07:05:39;0.00;99.90
31263;DHT22;17892;52.080;9.006;2023-02-08T07:08:05;0.10;99.90
31263;DHT22;17892;52.080;9.006;2023-02-08T07:10:31;0.10;99.90
31263;DHT22;17892;52.080;9.006;2023-02-08T07:12:57;0.10;99.90
31263;DHT22;17892;52.080;9.006;2023-02-08T07:15:23;0.20;99.90
31263;DHT22;17892;52.080;9.006;2023-02-08T07:17:48;0.30;99.90
31263;DHT22;17892;52.080;9.006;2023-02-08T07:20:14;0.30;99.90
31263;DHT22;17892;52.080;9.006;2023-02-08T07:22:41;0.40;99.90
31263;DHT22;17892;52.080;9.006;2023-02-08T07:25:08;0.50;99.90
31263;DHT22;17892;52.080;9.006;2023-02-08T07:27:34;0.60;98.80
31263;DHT22;17892;52.080;9.006;2023-02-08T07:30:00;0.70;99.90
31263;DHT22;17892;52.080;9.006;2023-02-08T07:32:26;0.80;99.90
31263;DHT22;17892;52.080;9.006;2023-02-08T07:34:52;0.80;99.90
31263;DHT22;17892;52.080;9.006;2023-02-08T07:37:19;0.90;99.90
31263;DHT22;17892;52.080;9.006;2023-02-08T07:39:44;1.00;99.90
31263;DHT22;17892;52.080;9.006;2023-02-08T07:42:10;1.00;99.90
31263;DHT22;17892;52.080;9.006;2023-02-08T07:44:37;1.00;99.90
31263;DHT22;17892;52.080;9.006;2023-02-08T07:47:04;1.10;99.90
31263;DHT22;17892;52.080;9.006;2023-02-08T07:49:32;1.10;99.70
31263;DHT22;17892;52.080;9.006;2023-02-08T07:51:59;1.20;99.90
31263;DHT22;17892;52.080;9.006;2023-02-08T07:54:25;1.40;99.90
31263;DHT22;17892;52.080;9.006;2023-02-08T07:56:51;1.50;99.90
31263;DHT22;17892;52.080;9.006;2023-02-08T07:59:16;1.70;99.90
31263;DHT22;17892;52.080;9.006;2023-02-08T08:01:42;1.80;99.90
31263;DHT22;17892;52.080;9.006;2023-02-08T08:04:08;1.90;99.90
31263;DHT22;17892;52.080;9.006;2023-02-08T08:06:34;2.00;99.90
31263;DHT22;17892;52.080;9.006;2023-02-08T08:08:59;2.00;99.90
31263;DHT22;17892;52.080;9.006;2023-02-08T08:11:25;2.10;99.90
31263;DHT22;17892;52.080;9.006;2023-02-08T08:13:51;2.10;99.90
31263;DHT22;17892;52.080;9.006;2023-02-08T08:16:18;2.20;99.90
31263;DHT22;17892;52.080;9.006;2023-02-08T08:18:44;2.20;99.90
31263;DHT22;17892;52.080;9.006;2023-02-08T08:21:10;2.30;99.90
31263;DHT22;17892;52.080;9.006;2023-02-08T08:23:36;2.30;99.90
31263;DHT22;17892;52.080;9.006;2023-02-08T08:26:21;2.40;99.90
31263;DHT22;17892;52.080;9.006;2023-02-08T08:28:47;2.40;96.10
31263;DHT22;17892;52.080;9.006;2023-02-08T08:31:16;2.50;99.90
31263;DHT22;17892;52.080;9.006;2023-02-08T08:33:43;2.60;99.90
31263;DHT22;17892;52.080;9.006;2023-02-08T08:36:09;2.70;99.90
31263;DHT22;17892;52.080;9.006;2023-02-08T08:38:35;2.90;99.90
31263;DHT22;17892;52.080;9.006;2023-02-08T08:41:14;3.00;99.90
31263;DHT22;17892;52.080;9.006;2023-02-08T08:43:42;3.20;96.90
31263;DHT22;17892;52.080;9.006;2023-02-08T08:46:09;3.50;99.90
31263;DHT22;17892;52.080;9.006;2023-02-08T08:48:35;3.80;99.90
31263;DHT22;17892;52.080;9.006;2023-02-08T08:51:03;4.00;99.90
31263;DHT22;17892;52.080;9.006;2023-02-08T08:53:29;4.20;99.90
31263;DHT22;17892;52.080;9.006;2023-02-08T08:55:55;4.40;99.90
31263;DHT22;17892;52.080;9.006;2023-02-08T08:58:20;4.70;99.90
31263;DHT22;17892;52.080;9.006;2023-02-08T09:00:46;5.00;99.90
31263;DHT22;17892;52.080;9.006;2023-02-08T09:03:12;5.30;99.90
31263;DHT22;17892;52.080;9.006;2023-02-08T09:05:37;5.70;99.90
31263;DHT22;17892;52.080;9.006;2023-02-08T09:08:03;6.10;99.90
31263;DHT22;17892;52.080;9.006;2023-02-08T09:10:29;6.60;99.90
31263;DHT22;17892;52.080;9.006;2023-02-08T09:12:56;6.90;99.90
31263;DHT22;17892;52.080;9.006;2023-02-08T09:15:22;7.30;99.90
31263;DHT22;17892;52.080;9.006;2023-02-08T09:17:48;7.70;99.90
31263;DHT22;17892;52.080;9.006;2023-02-08T09:20:14;8.10;99.90
31263;DHT22;17892;52.080;9.006;2023-02-08T09:22:39;8.30;99.90
31263;DHT22;17892;52.080;9.006;2023-02-08T09:25:05;8.70;99.90
31263;DHT22;17892;52.080;9.006;2023-02-08T09:27:32;9.00;99.90
31263;DHT22;17892;52.080;9.006;2023-02-08T09:29:59;9.20;99.90
31263;DHT22;17892;52.080;9.006;2023-02-08T09:32:24;9.40;99.90
31263;DHT22;17892;52.080;9.006;2023-02-08T09:34:50;9.60;99.90
31263;DHT22;17892;52.080;9.006;2023-02-08T09:37:16;9.80;99.90
31263;DHT22;17892;52.080;9.006;2023-02-08T09:39:43;10.00;99.90
31263;DHT22;17892;52.080;9.006;2023-02-08T09:42:30;10.20;99.90
31263;DHT22;17892;52.080;9.006;2023-02-08T09:48:22;10.50;96.00
31263;DHT22;17892;52.080;9.006;2023-02-08T09:50:56;10.80;95.30
31263;DHT22;17892;52.080;9.006;2023-02-08T09:53:39;10.90;98.00
31263;DHT22;17892;52.080;9.006;2023-02-08T09:56:14;11.10;94.90
31263;DHT22;17892;52.080;9.006;2023-02-08T09:58:46;11.10;94.00
31263;DHT22;17892;52.080;9.006;2023-02-08T10:01:23;11.20;96.00
31263;DHT22;17892;52.080;9.006;2023-02-08T10:06:59;11.30;91.80
31263;DHT22;17892;52.080;9.006;2023-02-08T10:09:26;11.30;96.00
31263;DHT22;17892;52.080;9.006;2023-02-08T10:14:50;11.20;90.60
31263;DHT22;17892;52.080;9.006;2023-02-08T10:20:32;11.10;87.90
31263;DHT22;17892;52.080;9.006;2023-02-08T10:23:33;11.10;62.60
31263;DHT22;17892;52.080;9.006;2023-02-08T10:35:12;11.10;93.20
31263;DHT22;17892;52.080;9.006;2023-02-08T10:37:42;11.10;92.90
31263;DHT22;17892;52.080;9.006;2023-02-08T10:42:58;11.10;86.00
31263;DHT22;17892;52.080;9.006;2023-02-08T10:48:59;11.00;79.90
31263;DHT22;17892;52.080;9.006;2023-02-08T10:51:33;11.10;74.40
31263;DHT22;17892;52.080;9.006;2023-02-08T10:53:59;11.10;93.50
31263;DHT22;17892;52.080;9.006;2023-02-08T10:59:30;11.10;86.10
31263;DHT22;17892;52.080;9.006;2023-02-08T11:01:58;11.20;85.40
31263;DHT22;17892;52.080;9.006;2023-02-08T11:04:24;11.30;98.30
31263;DHT22;17892;52.080;9.006;2023-02-08T11:06:50;11.40;98.20
31263;DHT22;17892;52.080;9.006;2023-02-08T11:09:24;11.60;99.50
31263;DHT22;17892;52.080;9.006;2023-02-08T11:11:52;11.70;96.00
31263;DHT22;17892;52.080;9.006;2023-02-08T11:14:23;11.80;97.30
31263;DHT22;17892;52.080;9.006;2023-02-08T11:16:53;11.90;97.10
31263;DHT22;17892;52.080;9.006;2023-02-08T11:19:28;12.10;98.60
31263;DHT22;17892;52.080;9.006;2023-02-08T11:21:58;12.30;99.90
31263;DHT22;17892;52.080;9.006;2023-02-08T11:24:34;12.50;99.90
31263;DHT22;17892;52.080;9.006;2023-02-08T11:30:26;12.80;95.40
31263;DHT22;17892;52.080;9.006;2023-02-08T11:35:45;13.10;93.20
31263;DHT22;17892;52.080;9.006;2023-02-08T11:38:18;13.20;99.90
31263;DHT22;17892;52.080;9.006;2023-02-08T11:40:46;13.20;99.80
31263;DHT22;17892;52.080;9.006;2023-02-08T11:43:25;13.10;98.90
31263;DHT22;17892;52.080;9.006;2023-02-08T11:45:53;12.90;90.20
31263;DHT22;17892;52.080;9.006;2023-02-08T11:51:01;12.10;91.50
31263;DHT22;17892;52.080;9.006;2023-02-08T11:53:35;11.60;93.10
31263;DHT22;17892;52.080;9.006;2023-02-08T11:58:40;11.00;93.30
31263;DHT22;17892;52.080;9.006;2023-02-08T12:01:17;10.90;96.40
31263;DHT22;17892;52.080;9.006;2023-02-08T12:03:45;10.90;94.50
31263;DHT22;17892;52.080;9.006;2023-02-08T12:06:36;10.90;96.30
31263;DHT22;17892;52.080;9.006;2023-02-08T12:12:46;10.80;89.30
31263;DHT22;17892;52.080;9.006;2023-02-08T12:21:27;10.30;90.80
31263;DHT22;17892;52.080;9.006;2023-02-08T12:24:26;10.00;84.40
31263;DHT22;17892;52.080;9.006;2023-02-08T12:27:45;9.80;84.10
31263;DHT22;17892;52.080;9.006;2023-02-08T12:39:33;8.90;90.70
31263;DHT22;17892;52.080;9.006;2023-02-08T12:49:18;8.40;96.00
31263;DHT22;17892;52.080;9.006;2023-02-08T12:51:58;8.30;98.00
31263;DHT22;17892;52.080;9.006;2023-02-08T12:54:51;8.30;99.90
31263;DHT22;17892;52.080;9.006;2023-02-08T12:57:23;8.20;99.90
31263;DHT22;17892;52.080;9.006;2023-02-08T12:59:58;8.10;99.90
31263;DHT22;17892;52.080;9.006;2023-02-08T13:02:39;8.10;99.90
31263;DHT22;17892;52.080;9.006;2023-02-08T13:05:16;8.10;99.90
31263;DHT22;17892;52.080;9.006;2023-02-08T13:07:45;8.20;99.90
31263;DHT22;17892;52.080;9.006;2023-02-08T13:10:26;8.60;99.90
31263;DHT22;17892;52.080;9.006;2023-02-08T13:12:57;9.10;99.90
31263;DHT22;17892;52.080;9.006;2023-02-08T13:16:06;9.70;99.90
31263;DHT22;17892;52.080;9.006;2023-02-08T13:18:37;10.40;99.90
31263;DHT22;17892;52.080;9.006;2023-02-08T13:21:12;11.10;99.90
31263;DHT22;17892;52.080;9.006;2023-02-08T13:23:45;11.80;99.90
31263;DHT22;17892;52.080;9.006;2023-02-08T13:28:52;12.90;99.90
31263;DHT22;17892;52.080;9.006;2023-02-08T13:31:23;13.40;99.90
31263;DHT22;17892;52.080;9.006;2023-02-08T13:37:30;14.30;99.90
31263;DHT22;17892;52.080;9.006;2023-02-08T13:40:19;14.60;99.90
31263;DHT22;17892;52.080;9.006;2023-02-08T13:43:04;14.90;99.90
31263;DHT22;17892;52.080;9.006;2023-02-08T13:45:36;15.00;99.90
31263;DHT22;17892;52.080;9.006;2023-02-08T13:48:06;15.10;99.90
31263;DHT22;17892;52.080;9.006;2023-02-08T13:50:48;14.90;99.00
31263;DHT22;17892;52.080;9.006;2023-02-08T13:53:17;14.50;87.50
31263;DHT22;17892;52.080;9.006;2023-02-08T13:56:08;14.00;96.70
31263;DHT22;17892;52.080;9.006;2023-02-08T14:01:49;12.80;94.80
31263;DHT22;17892;52.080;9.006;2023-02-08T14:06:35;11.60;97.20
31263;DHT22;17892;52.080;9.006;2023-02-08T14:11:48;10.80;92.70
31263;DHT22;17892;52.080;9.006;2023-02-08T14:19:31;9.80;90.40
31263;DHT22;17892;52.080;9.006;2023-02-08T14:24:40;9.20;96.30
31263;DHT22;17892;52.080;9.006;2023-02-08T14:27:48;9.00;99.70
31263;DHT22;17892;52.080;9.006;2023-02-08T14:30:21;8.70;95.40
31263;DHT22;17892;52.080;9.006;2023-02-08T14:35:28;8.40;82.00
31263;DHT22;17892;52.080;9.006;2023-02-08T14:40:53;8.00;93.40
31263;DHT22;17892;52.080;9.006;2023-02-08T14:43:39;7.90;98.30
31263;DHT22;17892;52.080;9.006;2023-02-08T14:49:15;7.60;93.90
31263;DHT22;17892;52.080;9.006;2023-02-08T14:52:03;7.50;94.90
31263;DHT22;17892;52.080;9.006;2023-02-08T14:54:38;7.40;93.70
31263;DHT22;17892;52.080;9.006;2023-02-08T14:57:29;7.30;99.90
31263;DHT22;17892;52.080;9.006;2023-02-08T15:00:00;7.20;98.10
31263;DHT22;17892;52.080;9.006;2023-02-08T15:02:28;7.20;99.40
31263;DHT22;17892;52.080;9.006;2023-02-08T15:04:57;7.10;99.90
31263;DHT22;17892;52.080;9.006;2023-02-08T15:10:12;7.00;99.90
31263;DHT22;17892;52.080;9.006;2023-02-08T15:12:43;6.90;99.90
31263;DHT22;17892;52.080;9.006;2023-02-08T15:15:35;6.90;99.90
31263;DHT22;17892;52.080;9.006;2023-02-08T15:18:05;6.90;99.80
31263;DHT22;17892;52.080;9.006;2023-02-08T15:20:34;6.80;99.90
31263;DHT22;17892;52.080;9.006;2023-02-08T15:23:05;6.70;99.90
31263;DHT22;17892;52.080;9.006;2023-02-08T15:25:42;6.60;99.90
31263;DHT22;17892;52.080;9.006;2023-02-08T15:28:24;6.60;99.90
31263;DHT22;17892;52.080;9.006;2023-02-08T15:30:56;6.50;99.90
31263;DHT22;17892;52.080;9.006;2023-02-08T15:33:23;6.50;99.90
31263;DHT22;17892;52.080;9.006;2023-02-08T15:36:00;6.40;99.90
31263;DHT22;17892;52.080;9.006;2023-02-08T15:38:28;6.30;99.90
31263;DHT22;17892;52.080;9.006;2023-02-08T15:41:11;6.30;99.90
31263;DHT22;17892;52.080;9.006;2023-02-08T15:43:39;6.40;99.90
31263;DHT22;17892;52.080;9.006;2023-02-08T15:46:16;6.50;99.90
31263;DHT22;17892;52.080;9.006;2023-02-08T15:48:47;6.70;99.90
31263;DHT22;17892;52.080;9.006;2023-02-08T15:51:14;7.00;99.90
31263;DHT22;17892;52.080;9.006;2023-02-08T15:53:44;7.20;99.90
31263;DHT22;17892;52.080;9.006;2023-02-08T15:56:16;7.30;99.90
31263;DHT22;17892;52.080;9.006;2023-02-08T15:58:48;7.40;99.90
31263;DHT22;17892;52.080;9.006;2023-02-08T16:01:20;7.30;99.90
31263;DHT22;17892;52.080;9.006;2023-02-08T16:03:47;7.20;99.90
31263;DHT22;17892;52.080;9.006;2023-02-08T16:06:22;7.10;98.60
31263;DHT22;17892;52.080;9.006;2023-02-08T16:08:50;6.80;99.90
31263;DHT22;17892;52.080;9.006;2023-02-08T16:11:26;6.50;99.90
31263;DHT22;17892;52.080;9.006;2023-02-08T16:13:56;6.30;99.60
31263;DHT22;17892;52.080;9.006;2023-02-08T16:19:04;5.60;99.90
31263;DHT22;17892;52.080;9.006;2023-02-08T16:21:42;5.30;99.10
31263;DHT22;17892;52.080;9.006;2023-02-08T16:29:26;4.50;99.80
31263;DHT22;17892;52.080;9.006;2023-02-08T16:32:05;4.20;99.10
31263;DHT22;17892;52.080;9.006;2023-02-08T16:34:34;4.00;99.70
31263;DHT22;17892;52.080;9.006;2023-02-08T16:37:03;3.70;99.90
31263;DHT22;17892;52.080;9.006;2023-02-08T16:39:38;3.50;99.90
31263;DHT22;17892;52.080;9.006;2023-02-08T16:42:24;3.30;99.90
31263;DHT22;17892;52.080;9.006;2023-02-08T16:45:09;3.00;99.70
31263;DHT22;17892;52.080;9.006;2023-02-08T16:50:19;2.60;99.90
31263;DHT22;17892;52.080;9.006;2023-02-08T16:52:58;2.40;99.90
31263;DHT22;17892;52.080;9.006;2023-02-08T16:55:26;2.20;99.90
31263;DHT22;17892;52.080;9.006;2023-02-08T16:57:55;2.10;99.90
31263;DHT22;17892;52.080;9.006;2023-02-08T17:00:26;1.90;99.90
31263;DHT22;17892;52.080;9.006;2023-02-08T17:02:54;1.80;99.90
31263;DHT22;17892;52.080;9.006;2023-02-08T17:05:23;1.60;99.90
31263;DHT22;17892;52.080;9.006;2023-02-08T17:07:51;1.50;99.90
31263;DHT22;17892;52.080;9.006;2023-02-08T17:10:30;1.40;99.90
31263;DHT22;17892;52.080;9.006;2023-02-08T17:12:57;1.30;99.90
31263;DHT22;17892;52.080;9.006;2023-02-08T17:15:24;1.30;99.90
31263;DHT22;17892;52.080;9.006;2023-02-08T17:17:51;1.20;99.90
31263;DHT22;17892;52.080;9.006;2023-02-08T17:20:24;1.10;99.90
31263;DHT22;17892;52.080;9.006;2023-02-08T17:22:54;1.10;99.90
31263;DHT22;17892;52.080;9.006;2023-02-08T17:25:20;1.00;99.90
31263;DHT22;17892;52.080;9.006;2023-02-08T17:27:53;1.00;99.90
31263;DHT22;17892;52.080;9.006;2023-02-08T17:33:03;0.80;99.90
31263;DHT22;17892;52.080;9.006;2023-02-08T17:35:31;0.80;99.90
31263;DHT22;17892;52.080;9.006;2023-02-08T17:37:58;0.70;99.90
31263;DHT22;17892;52.080;9.006;2023-02-08T17:40:29;0.60;99.90
31263;DHT22;17892;52.080;9.006;2023-02-08T17:42:58;0.60;99.90
31263;DHT22;17892;52.080;9.006;2023-02-08T17:45:25;0.50;99.90
31263;DHT22;17892;52.080;9.006;2023-02-08T17:47:51;0.40;99.90
31263;DHT22;17892;52.080;9.006;2023-02-08T17:50:18;0.40;99.90
31263;DHT22;17892;52.080;9.006;2023-02-08T17:52:45;0.30;99.90
31263;DHT22;17892;52.080;9.006;2023-02-08T17:55:14;0.30;99.90
31263;DHT22;17892;52.080;9.006;2023-02-08T17:57:42;0.20;99.90
31263;DHT22;17892;52.080;9.006;2023-02-08T18:00:14;0.20;99.90
31263;DHT22;17892;52.080;9.006;2023-02-08T18:02:46;0.10;99.90
31263;DHT22;17892;52.080;9.006;2023-02-08T18:05:21;0.10;99.90
31263;DHT22;17892;52.080;9.006;2023-02-08T18:07:50;0.10;99.90
31263;DHT22;17892;52.080;9.006;2023-02-08T18:10:16;0.10;99.90
31263;DHT22;17892;52.080;9.006;2023-02-08T18:12:42;0.10;99.90
31263;DHT22;17892;52.080;9.006;2023-02-08T18:15:11;0.30;99.90
31263;DHT22;17892;52.080;9.006;2023-02-08T18:17:39;0.50;99.90
31263;DHT22;17892;52.080;9.006;2023-02-08T18:20:05;0.70;99.90
31263;DHT22;17892;52.080;9.006;2023-02-08T18:22:32;0.90;99.90
31263;DHT22;17892;52.080;9.006;2023-02-08T18:24:57;1.10;99.90
31263;DHT22;17892;52.080;9.006;2023-02-08T18:27:23;1.30;99.90
31263;DHT22;17892;52.080;9.006;2023-02-08T18:29:49;1.50;99.90
31263;DHT22;17892;52.080;9.006;2023-02-08T18:32:16;1.70;99.90
31263;DHT22;17892;52.080;9.006;2023-02-08T18:34:43;1.90;99.90
31263;DHT22;17892;52.080;9.006;2023-02-08T18:37:09;2.00;99.90
31263;DHT22;17892;52.080;9.006;2023-02-08T18:39:35;2.10;99.90